General O'Brien, Argentina
Current Conditions -  °F | °C
As of 6:00 PM on Friday 31 Oct 2014 (Local Time) from SAEZ Reporting Station
Broken Clouds Broken Clouds  
Wind Chill: 64°   Ceiling: 7000
Heat Index: 64°   Visibility: 6mi
Dew Point: 55°   Wind: 14mph
Humidity: 73%   Direction: 170°S
Pressure: 30"   Gusts: NA
Location:  34.91°S, 60.63°W
Report Text: SAEZ 312100Z 17012KT 140V210 9999 SCT043 BKN070 18/13 Q1016
Loading
Personal Weather Stations






























Interactive Weather Map
Tropical Storm Tracking
New forecast layout! Learn more

10-Day Weather Forecast

Advertisements
Track Severe Weather on mobile